Time;durP1;ratioP1;P1;durP2;ratioP2;P2;SDS_P1;SDS_P2;PMS_P1;PMS_P2;Temp;Humidity;BMP_temperature;BMP_pressure;BME280_temperature;BME280_humidity;BME280_pressure;Samples;Min_cycle;Max_cycle;Signal;HPM_P1;HPM_P2
2021/11/03 00:01:21;;;;;;;14.27;7.88;;;;;;;3.05;100.00;100128.59;5029843;28;20552;-75
2021/11/03 00:03:52;;;;;;;14.55;8.25;;;;;;;3.07;100.00;100118.94;5030205;28;20049;-74
2021/11/03 00:06:23;;;;;;;12.65;7.18;;;;;;;3.05;100.00;100121.59;5030052;28;20049;-73
2021/11/03 00:08:54;;;;;;;14.80;7.88;;;;;;;3.09;100.00;100120.66;5029779;28;20133;-74
2021/11/03 00:11:21;;;;;;;15.20;8.57;;;;;;;3.09;100.00;100118.00;5029954;28;20057;-74
2021/11/03 00:13:49;;;;;;;15.68;7.97;;;;;;;3.09;100.00;100123.28;5028967;28;20085;-73
2021/11/03 00:16:17;;;;;;;15.63;8.07;;;;;;;3.05;100.00;100120.69;5029310;28;20076;-74
2021/11/03 00:18:45;;;;;;;13.25;6.88;;;;;;;3.03;100.00;100115.47;5029402;28;20163;-75
2021/11/03 00:21:13;;;;;;;14.55;7.75;;;;;;;3.06;100.00;100118.03;5028592;28;20480;-74
2021/11/03 00:23:41;;;;;;;14.90;7.40;;;;;;;3.25;100.00;100115.16;5029112;28;20089;-74
2021/11/03 00:26:11;;;;;;;15.38;7.20;;;;;;;3.34;100.00;100109.78;5029011;28;20045;-74
2021/11/03 00:28:39;;;;;;;16.30;7.88;;;;;;;3.32;100.00;100114.19;5029404;28;20128;-74
2021/11/03 00:31:07;;;;;;;14.82;7.65;;;;;;;3.40;100.00;100114.97;5029155;28;20446;-75
2021/11/03 00:33:35;;;;;;;13.80;7.57;;;;;;;3.38;100.00;100111.47;5029043;28;20057;-73
2021/11/03 00:36:03;;;;;;;13.73;7.93;;;;;;;3.41;100.00;100119.34;5028988;28;20477;-74
2021/11/03 00:38:32;;;;;;;13.00;7.40;;;;;;;3.34;100.00;100129.13;5028810;28;20161;-73
2021/11/03 00:41:00;;;;;;;14.23;7.57;;;;;;;3.27;100.00;100116.03;5028937;28;20049;-73
2021/11/03 00:43:29;;;;;;;12.52;7.20;;;;;;;3.17;100.00;100118.78;5028724;28;20123;-74
2021/11/03 00:45:58;;;;;;;16.70;8.88;;;;;;;3.16;100.00;100127.59;5029002;28;20103;-73
2021/11/03 00:48:26;;;;;;;13.80;7.90;;;;;;;3.12;100.00;100119.75;5029472;28;20049;-74
2021/11/03 00:50:54;;;;;;;12.98;7.38;;;;;;;3.04;100.00;100119.84;5029011;28;20053;-74
2021/11/03 00:53:22;;;;;;;14.70;8.07;;;;;;;2.96;100.00;100121.69;5028112;28;20053;-74
2021/11/03 00:55:50;;;;;;;13.10;7.50;;;;;;;2.88;100.00;100118.28;5028638;28;20378;-73
2021/11/03 00:58:18;;;;;;;11.60;6.20;;;;;;;2.83;100.00;100122.72;5028582;28;20154;-73
2021/11/03 01:00:47;;;;;;;14.18;7.57;;;;;;;2.82;100.00;100126.28;5028711;28;20063;-74
2021/11/03 01:03:15;;;;;;;13.77;7.82;;;;;;;2.99;100.00;100143.59;5027397;28;20057;-73
2021/11/03 01:05:43;;;;;;;12.80;7.63;;;;;;;3.05;100.00;100145.31;5028133;28;20045;-73
2021/11/03 01:08:13;;;;;;;17.48;9.02;;;;;;;3.19;100.00;100139.88;5028140;28;20103;-74
2021/11/03 01:10:44;;;;;;;18.52;10.18;;;;;;;3.60;100.00;100125.22;5028103;28;20061;-67
2021/11/03 01:13:12;;;;;;;16.45;9.93;;;;;;;3.71;100.00;100133.88;5028311;28;20145;-67
2021/11/03 01:15:41;;;;;;;18.33;9.40;;;;;;;3.72;100.00;100143.50;5027898;28;20115;-67
2021/11/03 01:18:10;;;;;;;18.00;10.25;;;;;;;3.70;100.00;100128.59;5028184;28;20053;-67
2021/11/03 01:20:39;;;;;;;15.75;9.55;;;;;;;3.67;100.00;100137.44;5028036;28;20469;-67
2021/11/03 01:23:09;;;;;;;16.77;11.13;;;;;;;3.66;100.00;100130.44;5027406;28;20049;-67
2021/11/03 01:25:38;;;;;;;21.10;11.00;;;;;;;3.67;100.00;100124.22;5028650;28;20061;-68
2021/11/03 01:28:06;;;;;;;16.40;10.60;;;;;;;3.62;100.00;100141.91;5027901;28;20497;-67
2021/11/03 01:30:34;;;;;;;20.42;11.65;;;;;;;3.53;100.00;100136.78;5027982;28;20053;-67
2021/11/03 01:33:03;;;;;;;19.08;11.23;;;;;;;3.44;100.00;100134.25;5027993;28;20057;-67
2021/11/03 01:35:33;;;;;;;22.05;11.88;;;;;;;3.40;100.00;100143.09;5028005;28;20046;-67
2021/11/03 01:38:01;;;;;;;22.13;11.75;;;;;;;3.43;100.00;100141.28;5028342;28;20190;-67
2021/11/03 01:40:34;;;;;;;22.40;11.18;;;;;;;3.39;100.00;100133.44;5028004;28;20087;-67
2021/11/03 01:43:02;;;;;;;20.45;11.50;;;;;;;3.35;100.00;100122.97;5027358;28;20088;-67
2021/11/03 01:45:32;;;;;;;21.60;12.02;;;;;;;3.30;100.00;100137.97;5027763;28;20096;-67
2021/11/03 01:48:02;;;;;;;17.30;11.25;;;;;;;3.27;100.00;100138.00;5027800;28;20049;-67
2021/11/03 01:50:36;;;;;;;19.58;10.93;;;;;;;3.26;100.00;100143.31;5027706;28;20053;-67
2021/11/03 01:53:09;;;;;;;17.60;11.35;;;;;;;3.23;100.00;100148.59;5027236;28;20049;-67
2021/11/03 01:55:42;;;;;;;22.15;12.13;;;;;;;3.21;100.00;100153.91;5027631;28;20064;-67
2021/11/03 01:58:14;;;;;;;19.77;11.05;;;;;;;3.21;100.00;100151.25;5027909;28;20449;-67
2021/11/03 02:00:44;;;;;;;19.15;11.50;;;;;;;3.34;100.00;100149.34;5027666;28;20060;-67
2021/11/03 02:03:16;;;;;;;20.23;11.07;;;;;;;3.32;100.00;100145.84;5027624;28;20489;-67
2021/11/03 02:05:49;;;;;;;20.85;11.05;;;;;;;3.32;100.00;100145.84;5027560;28;20053;-67
2021/11/03 02:08:18;;;;;;;20.10;12.00;;;;;;;3.39;100.00;100144.00;5027717;28;20060;-67
2021/11/03 02:10:46;;;;;;;25.17;13.85;;;;;;;3.44;100.00;100134.25;5027316;28;20485;-68
2021/11/03 02:13:16;;;;;;;24.50;12.38;;;;;;;3.50;100.00;100135.03;5028154;28;20140;-67
2021/11/03 02:15:44;;;;;;;23.08;12.75;;;;;;;3.53;100.00;100118.31;5031185;28;20053;-67
2021/11/03 02:18:15;;;;;;;22.02;11.57;;;;;;;3.60;100.00;100125.22;5031314;28;20100;-67
2021/11/03 02:20:48;;;;;;;21.77;12.13;;;;;;;3.60;100.00;100127.88;5031368;28;20057;-67
2021/11/03 02:23:24;;;;;;;24.27;12.03;;;;;;;3.60;100.00;100124.38;5031007;28;20045;-67
2021/11/03 02:26:01;;;;;;;19.77;11.68;;;;;;;3.62;100.00;100134.00;5031007;28;20477;-74
2021/11/03 02:28:31;;;;;;;24.00;12.30;;;;;;;3.63;100.00;100122.56;5031472;28;20042;-73
2021/11/03 02:30:59;;;;;;;23.95;13.02;;;;;;;3.63;100.00;100119.06;5031183;28;20111;-75
2021/11/03 02:33:29;;;;;;;21.77;12.50;;;;;;;3.63;100.00;100119.91;5031040;28;20053;-74
2021/11/03 02:35:59;;;;;;;21.67;10.80;;;;;;;3.64;100.00;100112.84;5031352;28;20156;-74
2021/11/03 02:38:31;;;;;;;23.83;11.52;;;;;;;3.64;100.00;100111.09;5031200;28;20045;-73
2021/11/03 02:41:05;;;;;;;23.05;12.85;;;;;;;3.64;100.00;100111.09;5031097;28;20091;-74
2021/11/03 02:43:40;;;;;;;21.35;12.05;;;;;;;3.62;100.00;100107.59;5030341;28;20129;-74
2021/11/03 02:46:09;;;;;;;19.63;10.82;;;;;;;3.63;100.00;100105.84;5031074;28;20222;-74
2021/11/03 02:48:39;;;;;;;18.55;10.55;;;;;;;3.63;100.00;100105.84;5031066;28;20096;-74
2021/11/03 02:51:10;;;;;;;18.65;11.05;;;;;;;3.66;100.00;100105.78;5030592;28;20097;-74
2021/11/03 02:53:43;;;;;;;22.13;11.32;;;;;;;3.68;100.00;100090.81;5030211;28;20562;-74
2021/11/03 02:56:13;;;;;;;19.10;10.07;;;;;;;3.68;100.00;100090.81;5030657;28;20109;-72
2021/11/03 02:58:41;;;;;;;19.77;10.95;;;;;;;3.66;100.00;100088.22;5030589;28;20294;-73
2021/11/03 03:01:12;;;;;;;17.05;9.85;;;;;;;3.68;100.00;100080.28;5030462;28;20140;-73
2021/11/03 03:03:44;;;;;;;17.83;10.98;;;;;;;3.66;100.00;100080.28;5030577;28;20060;-72
2021/11/03 03:06:18;;;;;;;17.60;10.65;;;;;;;3.66;100.00;100071.47;5030459;28;20148;-73
2021/11/03 03:08:46;;;;;;;18.40;10.15;;;;;;;3.63;100.00;100072.41;5030368;28;20045;-73
2021/11/03 03:11:16;;;;;;;19.75;11.23;;;;;;;3.58;100.00;100066.34;5030535;28;20382;-73
2021/11/03 03:13:44;;;;;;;18.38;10.07;;;;;;;3.51;100.00;100068.22;5031067;28;20053;-73
2021/11/03 03:16:12;;;;;;;17.85;10.40;;;;;;;3.50;100.00;100070.88;5030677;28;20276;-67
2021/11/03 03:18:40;;;;;;;15.70;9.98;;;;;;;3.45;100.00;100070.91;5030516;28;20221;-66
2021/11/03 03:21:08;;;;;;;19.65;9.88;;;;;;;3.41;100.00;100066.59;5026930;28;20493;-66
2021/11/03 03:23:40;;;;;;;16.98;10.05;;;;;;;3.37;100.00;100067.53;5029391;28;20073;-67
2021/11/03 03:26:11;;;;;;;16.75;9.65;;;;;;;3.29;100.00;100065.00;5029715;28;20541;-67
2021/11/03 03:28:41;;;;;;;19.33;10.25;;;;;;;3.26;100.00;100072.09;5029947;28;20198;-67
2021/11/03 03:31:12;;;;;;;17.27;10.00;;;;;;;3.18;100.00;100077.47;5030365;28;20246;-74
2021/11/03 03:33:43;;;;;;;22.23;11.20;;;;;;;3.12;100.00;100067.88;5030096;28;20053;-74
2021/11/03 03:36:10;;;;;;;17.73;9.95;;;;;;;3.08;100.00;100068.84;5029774;28;20455;-67
2021/11/03 03:38:39;;;;;;;16.00;9.15;;;;;;;3.03;100.00;100080.31;5029652;28;20085;-67
2021/11/03 03:41:08;;;;;;;15.43;9.15;;;;;;;2.95;100.00;100072.53;5029983;28;20450;-68
2021/11/03 03:43:36;;;;;;;16.63;10.27;;;;;;;2.93;100.00;100069.91;5030054;28;20129;-68
2021/11/03 03:46:06;;;;;;;16.40;9.98;;;;;;;2.88;100.00;100074.38;5030217;28;20128;-68
2021/11/03 03:48:36;;;;;;;17.83;9.70;;;;;;;2.83;100.00;100077.94;5030204;28;20496;-75
2021/11/03 03:51:05;;;;;;;18.90;9.82;;;;;;;2.82;100.00;100082.34;5029788;28;20049;-75
2021/11/03 03:53:34;;;;;;;16.25;8.93;;;;;;;2.76;100.00;100077.16;5028932;28;20432;-75
2021/11/03 03:56:12;;;;;;;17.48;9.73;;;;;;;2.72;100.00;100088.59;5029875;28;20062;-74
2021/11/03 03:58:41;;;;;;;16.35;9.35;;;;;;;2.66;100.00;100089.56;5029733;28;20053;-68
2021/11/03 04:01:11;;;;;;;18.60;9.68;;;;;;;2.64;100.00;100095.72;5029547;28;20449;-68
2021/11/03 04:03:40;;;;;;;19.00;9.90;;;;;;;2.60;100.00;100095.75;5029514;28;20050;-68
2021/11/03 04:06:09;;;;;;;14.35;9.38;;;;;;;2.63;100.00;100100.13;5029416;28;20497;-68
2021/11/03 04:08:37;;;;;;;20.23;10.25;;;;;;;2.60;100.00;100106.28;5029256;28;20096;-68
2021/11/03 04:11:06;;;;;;;16.92;11.07;;;;;;;2.59;100.00;100108.97;5029341;28;20140;-68
2021/11/03 04:13:36;;;;;;;19.77;10.90;;;;;;;2.60;100.00;100113.31;5029633;28;20049;-68
2021/11/03 04:16:04;;;;;;;19.00;10.40;;;;;;;2.58;100.00;100118.59;5029636;28;20061;-68
2021/11/03 04:18:34;;;;;;;16.10;9.25;;;;;;;2.64;100.00;100125.59;5029135;28;20050;-68
2021/11/03 04:21:02;;;;;;;15.57;9.23;;;;;;;2.70;100.00;100124.66;5029235;28;20504;-68
2021/11/03 04:23:30;;;;;;;17.85;9.52;;;;;;;2.76;100.00;100125.44;5028741;28;20228;-68
2021/11/03 04:25:58;;;;;;;22.23;10.55;;;;;;;2.90;100.00;100124.41;5029305;28;20084;-68
2021/11/03 04:28:27;;;;;;;20.40;11.02;;;;;;;2.94;100.00;100132.25;5028628;28;20088;-68
2021/11/03 04:30:54;;;;;;;18.67;10.75;;;;;;;2.94;100.00;100128.75;5028934;28;20538;-68
2021/11/03 04:33:22;;;;;;;20.27;11.65;;;;;;;2.92;100.00;100139.31;5028467;28;20042;-69
2021/11/03 04:35:51;;;;;;;23.73;11.98;;;;;;;2.98;100.00;100133.13;5028843;28;20539;-68
2021/11/03 04:38:19;;;;;;;18.65;11.10;;;;;;;3.05;100.00;100141.78;5027826;28;20500;-68
2021/11/03 04:40:47;;;;;;;20.85;10.98;;;;;;;3.12;100.00;100139.06;5028523;28;20369;-68
2021/11/03 04:43:15;;;;;;;20.25;11.05;;;;;;;3.16;100.00;100137.25;5028679;28;20480;-68
2021/11/03 04:45:43;;;;;;;17.35;10.10;;;;;;;3.11;100.00;100136.44;5028927;28;20053;-68
2021/11/03 04:48:12;;;;;;;19.85;10.95;;;;;;;3.12;100.00;100141.72;5028696;28;20088;-68
2021/11/03 04:50:41;;;;;;;22.52;11.68;;;;;;;3.08;100.00;100147.94;5029229;28;20108;-68
2021/11/03 04:53:10;;;;;;;20.10;11.38;;;;;;;3.04;100.00;100150.59;5028069;28;20084;-69
2021/11/03 04:55:39;;;;;;;18.35;10.77;;;;;;;2.97;100.00;100150.66;5029256;28;20515;-68
2021/11/03 04:58:08;;;;;;;20.50;10.77;;;;;;;2.99;100.00;100159.41;5028137;28;20534;-68
2021/11/03 05:00:38;;;;;;;19.42;10.93;;;;;;;2.95;100.00;100152.47;5028328;28;20539;-69
2021/11/03 05:03:06;;;;;;;20.00;11.43;;;;;;;2.95;100.00;100154.22;5028017;28;20424;-69
2021/11/03 05:05:35;;;;;;;22.15;12.43;;;;;;;3.07;100.00;100154.06;5028513;28;20050;-68
2021/11/03 05:08:07;;;;;;;25.38;14.35;;;;;;;3.22;100.00;100165.31;5028170;28;20548;-70
2021/11/03 05:10:36;;;;;;;30.25;14.15;;;;;;;3.26;100.00;100162.63;5028277;28;20069;-70
2021/11/03 05:13:05;;;;;;;34.05;16.20;;;;;;;3.25;100.00;100158.25;5028358;28;20049;-70
2021/11/03 05:15:33;;;;;;;26.73;14.52;;;;;;;3.23;100.00;100162.66;5028490;28;20049;-70
2021/11/03 05:18:01;;;;;;;27.17;15.32;;;;;;;3.20;100.00;100157.41;5028011;28;20053;-70
2021/11/03 05:20:29;;;;;;;32.22;16.35;;;;;;;3.18;100.00;100153.94;5028257;28;20136;-70
2021/11/03 05:22:57;;;;;;;26.80;16.17;;;;;;;3.19;100.00;100163.59;5028196;28;20057;-68
2021/11/03 05:25:28;;;;;;;33.42;15.05;;;;;;;3.15;100.00;100160.13;5027999;28;20053;-68
2021/11/03 05:27:58;;;;;;;28.25;16.05;;;;;;;3.09;100.00;100159.34;5027881;28;20072;-69
2021/11/03 05:30:29;;;;;;;28.25;15.52;;;;;;;3.01;100.00;100166.44;5028388;28;20046;-68
2021/11/03 05:32:58;;;;;;;32.97;15.98;;;;;;;2.95;100.00;100162.13;5028387;28;20053;-68
2021/11/03 05:35:27;;;;;;;31.27;17.52;;;;;;;2.91;100.00;100163.94;5027942;28;20049;-68
2021/11/03 05:37:55;;;;;;;30.75;15.43;;;;;;;2.82;100.00;100166.66;5028218;28;20059;-69
2021/11/03 05:40:26;;;;;;;31.38;16.27;;;;;;;2.75;100.00;100160.59;5027652;28;20049;-69
2021/11/03 05:42:55;;;;;;;26.33;15.65;;;;;;;2.68;100.00;100158.03;5027747;28;20100;-69
2021/11/03 05:45:25;;;;;;;29.92;16.10;;;;;;;2.62;100.00;100158.97;5027890;28;20089;-69
2021/11/03 05:47:54;;;;;;;27.17;14.88;;;;;;;2.58;100.00;100155.50;5027209;28;20046;-69
2021/11/03 05:50:30;;;;;;;31.77;16.67;;;;;;;2.57;100.00;100164.28;5027640;28;20062;-69
2021/11/03 05:52:58;;;;;;;26.77;14.65;;;;;;;2.50;100.00;100159.09;5027320;28;20107;-69
2021/11/03 05:55:26;;;;;;;27.38;14.80;;;;;;;2.44;100.00;100154.75;5027403;28;20045;-70
2021/11/03 05:57:56;;;;;;;21.67;14.20;;;;;;;2.36;100.00;100152.19;5027821;28;20165;-69
2021/11/03 06:00:29;;;;;;;27.67;15.18;;;;;;;2.32;100.00;100161.03;5027514;28;20076;-69
2021/11/03 06:02:58;;;;;;;31.50;15.00;;;;;;;2.30;100.00;100160.16;5027589;28;20057;-69
2021/11/03 06:05:25;;;;;;;26.67;15.23;;;;;;;2.29;100.00;100166.31;5027801;28;20060;-69
2021/11/03 06:07:56;;;;;;;28.77;14.77;;;;;;;2.30;100.00;100168.06;5027430;28;20148;-69
2021/11/03 06:10:28;;;;;;;29.77;14.10;;;;;;;2.26;100.00;100165.47;5027306;28;20113;-69
2021/11/03 06:12:56;;;;;;;27.30;13.75;;;;;;;2.21;100.00;100158.50;5026990;28;20116;-69
2021/11/03 06:15:27;;;;;;;30.98;15.02;;;;;;;2.16;100.00;100162.91;5027481;28;20045;-69
2021/11/03 06:17:57;;;;;;;26.80;15.82;;;;;;;2.14;100.00;100164.66;5027269;28;20132;-69
2021/11/03 06:20:25;;;;;;;27.80;14.73;;;;;;;2.21;100.00;100162.88;5027203;28;20045;-69
2021/11/03 06:22:53;;;;;;;29.73;16.20;;;;;;;2.23;100.00;100171.59;5027412;28;20049;-69
2021/11/03 06:25:24;;;;;;;26.20;14.85;;;;;;;2.16;100.00;100165.56;5027356;28;20128;-69
2021/11/03 06:27:53;;;;;;;28.45;18.10;;;;;;;2.12;100.00;100162.94;5027002;28;20514;-69
2021/11/03 06:30:23;;;;;;;34.25;17.90;;;;;;;2.07;100.00;100162.13;5026744;28;20343;-69
2021/11/03 06:32:51;;;;;;;31.10;16.65;;;;;;;2.07;100.00;100172.66;5026762;28;20140;-69
2021/11/03 06:35:23;;;;;;;37.33;15.88;;;;;;;1.97;100.00;100175.31;5027460;28;20089;-69
2021/11/03 06:37:52;;;;;;;29.63;16.75;;;;;;;1.95;100.00;100174.47;5026817;28;20149;-69
2021/11/03 06:40:24;;;;;;;29.25;16.88;;;;;;;1.92;100.00;100171.84;5027443;28;20098;-69
2021/11/03 06:42:52;;;;;;;32.60;16.35;;;;;;;1.89;100.00;100168.38;5026648;28;20136;-70
2021/11/03 06:45:22;;;;;;;26.63;15.35;;;;;;;1.91;100.00;100169.22;5027170;28;20045;-69
2021/11/03 06:47:52;;;;;;;32.47;16.33;;;;;;;1.89;100.00;100163.13;5027560;28;20115;-68
2021/11/03 06:50:27;;;;;;;30.02;15.57;;;;;;;1.90;100.00;100167.50;5027367;28;20042;-68
2021/11/03 06:52:56;;;;;;;29.58;16.42;;;;;;;1.89;100.00;100169.28;5025512;28;20053;-68
2021/11/03 06:55:25;;;;;;;32.95;17.25;;;;;;;1.88;100.00;100166.66;5026059;28;20461;-68
2021/11/03 06:57:53;;;;;;;29.50;16.02;;;;;;;1.87;100.00;100163.13;5026735;28;20089;-68
2021/11/03 07:00:27;;;;;;;28.65;16.38;;;;;;;1.89;100.00;100163.13;5028380;28;20456;-68
2021/11/03 07:02:56;;;;;;;29.35;16.50;;;;;;;1.88;100.00;100164.03;5030763;28;20054;-69
2021/11/03 07:05:26;;;;;;;31.98;17.15;;;;;;;1.93;100.00;100162.22;5030536;28;20049;-69
2021/11/03 07:07:54;;;;;;;23.00;13.93;;;;;;;1.89;100.00;100156.13;5030101;28;20071;-69
2021/11/03 07:10:24;;;;;;;30.05;16.38;;;;;;;1.86;100.00;100157.00;5031080;28;20045;-69
2021/11/03 07:12:52;;;;;;;29.65;15.23;;;;;;;1.85;100.00;100155.25;5031209;28;20057;-69
2021/11/03 07:15:22;;;;;;;29.73;16.05;;;;;;;1.85;100.00;100162.28;5031229;28;20060;-69
2021/11/03 07:17:50;;;;;;;28.48;16.20;;;;;;;1.88;100.00;100157.00;5031023;28;20077;-67
2021/11/03 07:20:18;;;;;;;29.75;16.30;;;;;;;1.86;100.00;100166.66;5030925;28;20096;-67
2021/11/03 07:22:48;;;;;;;26.90;15.05;;;;;;;1.82;100.00;100178.06;5030731;28;20050;-69
2021/11/03 07:25:21;;;;;;;28.17;15.50;;;;;;;1.80;100.00;100171.94;5030774;28;20493;-69
2021/11/03 07:27:51;;;;;;;36.27;17.43;;;;;;;1.86;100.00;100174.56;5030610;28;20145;-70
2021/11/03 07:30:21;;;;;;;31.27;16.90;;;;;;;1.86;100.00;100172.78;5030420;28;20045;-67
2021/11/03 07:32:50;;;;;;;29.42;15.90;;;;;;;1.89;100.00;100177.16;5030396;28;20460;-67
2021/11/03 07:35:18;;;;;;;31.55;16.88;;;;;;;1.93;100.00;100180.66;5030618;28;20058;-67
2021/11/03 07:37:52;;;;;;;31.13;17.10;;;;;;;2.00;100.00;100182.34;5031140;28;20045;-67
2021/11/03 07:40:24;;;;;;;32.10;16.88;;;;;;;2.03;100.00;100185.81;5030183;28;20136;-67
2021/11/03 07:42:53;;;;;;;39.10;18.35;;;;;;;2.08;100.00;100192.78;5030471;28;20084;-67
2021/11/03 07:45:21;;;;;;;37.17;17.60;;;;;;;2.11;100.00;100184.88;5030562;28;20089;-67
2021/11/03 07:47:50;;;;;;;38.45;19.15;;;;;;;2.19;100.00;100191.81;5030349;28;20049;-67
2021/11/03 07:50:22;;;;;;;37.47;19.67;;;;;;;2.15;100.00;100190.13;5030388;28;20041;-67
2021/11/03 07:52:52;;;;;;;36.60;18.50;;;;;;;2.16;100.00;100194.50;5029894;28;20485;-67
2021/11/03 07:55:20;;;;;;;35.22;18.92;;;;;;;2.23;100.00;100204.09;5030550;28;20045;-73
2021/11/03 07:57:48;;;;;;;31.45;17.50;;;;;;;2.23;100.00;100195.31;5030168;28;20141;-73
2021/11/03 08:00:24;;;;;;;37.20;18.52;;;;;;;2.29;100.00;100203.16;5030223;28;20102;-73
2021/11/03 08:02:52;;;;;;;30.52;17.88;;;;;;;2.32;100.00;100205.78;5030148;28;20058;-73
2021/11/03 08:05:27;;;;;;;34.78;18.88;;;;;;;2.37;100.00;100201.34;5030030;28;20049;-73
2021/11/03 08:08:00;;;;;;;34.00;18.73;;;;;;;2.46;100.00;100199.53;5030006;28;20057;-74
2021/11/03 08:10:29;;;;;;;39.25;19.58;;;;;;;2.49;100.00;100204.78;5028955;28;20076;-73
2021/11/03 08:12:57;;;;;;;34.72;19.85;;;;;;;2.47;100.00;100199.50;5029078;28;20049;-67
2021/11/03 08:15:27;;;;;;;40.33;20.65;;;;;;;2.55;100.00;100209.97;5029968;28;20053;-67
2021/11/03 08:17:58;;;;;;;38.63;21.27;;;;;;;2.65;100.00;100205.50;5029593;28;20115;-66
2021/11/03 08:20:28;;;;;;;41.30;22.23;;;;;;;2.78;100.00;100204.47;5029901;28;20076;-67
2021/11/03 08:22:59;;;;;;;39.38;21.27;;;;;;;2.83;100.00;100209.69;5028849;28;20084;-67
2021/11/03 08:25:29;;;;;;;36.10;20.33;;;;;;;2.86;100.00;100215.81;5029084;28;20052;-67
2021/11/03 08:27:57;;;;;;;39.33;19.92;;;;;;;2.91;100.00;100207.84;5029286;28;20060;-67
2021/11/03 08:30:41;;;;;;;42.58;21.35;;;;;;;2.94;100.00;100221.00;5029087;28;20078;-67
2021/11/03 08:33:13;;;;;;;31.95;19.02;;;;;;;2.95;100.00;100218.34;5028532;28;20045;-67
2021/11/03 08:35:49;;;;;;;33.47;18.17;;;;;;;2.98;100.00;100228.88;5029393;28;20171;-67
2021/11/03 08:38:21;;;;;;;41.42;21.35;;;;;;;2.99;100.00;100224.47;5029220;28;20092;-67
2021/11/03 08:40:51;;;;;;;34.13;19.52;;;;;;;3.04;100.00;100224.41;5029675;28;20072;-67
2021/11/03 08:43:26;;;;;;;35.88;21.00;;;;;;;3.04;100.00;100230.56;5029331;28;20488;-67
2021/11/03 08:45:56;;;;;;;35.78;20.15;;;;;;;3.13;100.00;100238.38;5028287;28;20557;-67
2021/11/03 08:48:25;;;;;;;37.55;20.50;;;;;;;3.20;100.00;100233.88;5029287;28;20073;-67
2021/11/03 08:50:56;;;;;;;36.67;21.00;;;;;;;3.28;100.00;100229.38;5028604;28;20212;-67
2021/11/03 08:53:25;;;;;;;41.88;21.45;;;;;;;3.41;100.00;100229.28;5028539;28;20049;-67
2021/11/03 08:55:55;;;;;;;44.50;22.67;;;;;;;3.51;100.00;100225.63;5028438;28;20115;-68
2021/11/03 08:58:26;;;;;;;47.08;25.58;;;;;;;3.75;100.00;100232.34;5028302;28;20057;-68
2021/11/03 09:00:56;;;;;;;50.45;26.58;;;;;;;3.95;100.00;100229.41;5028910;28;20528;-68
2021/11/03 09:03:24;;;;;;;44.60;25.10;;;;;;;4.16;100.00;100232.63;5028368;28;20136;-69
2021/11/03 09:05:52;;;;;;;53.40;26.80;;;;;;;4.22;100.00;100227.22;5028189;28;20167;-68
2021/11/03 09:08:22;;;;;;;56.70;28.05;;;;;;;4.41;100.00;100228.69;5028541;28;20136;-69
2021/11/03 09:10:55;;;;;;;52.67;27.58;;;;;;;4.52;100.00;100225.88;5028458;28;20049;-68
2021/11/03 09:13:26;;;;;;;50.25;27.70;;;;;;;4.51;100.00;100229.41;5028323;28;20081;-69
2021/11/03 09:15:54;;;;;;;56.70;29.95;;;;;;;4.57;100.00;100236.38;5028078;28;20049;-69
2021/11/03 09:18:22;;;;;;;62.42;31.52;;;;;;;4.72;100.00;100232.59;5028133;28;20505;-68
2021/11/03 09:20:55;;;;;;;59.95;28.90;;;;;;;4.95;100.00;100237.44;5028273;28;20087;-68
2021/11/03 09:23:23;;;;;;;66.18;32.13;;;;;;;5.26;100.00;100237.75;5027578;28;20512;-68
2021/11/03 09:25:54;;;;;;;63.13;32.60;;;;;;;5.33;100.00;100239.38;5028616;28;20132;-69
2021/11/03 09:28:24;;;;;;;61.45;32.20;;;;;;;5.36;100.00;100241.06;5027796;28;20053;-69
2021/11/03 09:30:53;;;;;;;61.42;30.83;;;;;;;5.43;100.00;100242.69;5028128;28;20481;-68
2021/11/03 09:33:23;;;;;;;60.47;32.63;;;;;;;5.50;100.00;100241.66;5028048;28;20540;-68
2021/11/03 09:35:55;;;;;;;61.72;32.40;;;;;;;5.58;100.00;100249.44;5026823;28;20053;-70
2021/11/03 09:38:27;;;;;;;62.95;33.28;;;;;;;5.67;100.00;100248.38;5028485;28;20076;-70
2021/11/03 09:40:59;;;;;;;63.70;35.05;;;;;;;5.73;100.00;100248.25;5028001;28;20079;-69
2021/11/03 09:43:32;;;;;;;61.22;34.40;;;;;;;5.85;100.00;100255.06;5027532;28;20423;-69
2021/11/03 09:46:03;;;;;;;71.22;37.17;;;;;;;5.94;100.00;100249.53;5027259;28;20072;-69
2021/11/03 09:48:34;;;;;;;63.25;33.83;;;;;;;6.09;100.00;100251.00;5027401;28;20056;-75
2021/11/03 09:51:05;;;;;;;63.95;33.85;;;;;;;6.17;100.00;100257.00;5026887;28;20136;-74
2021/11/03 09:53:41;;;;;;;59.53;34.17;;;;;;;6.13;100.00;100253.56;5026684;28;20053;-74
2021/11/03 09:56:14;;;;;;;58.45;30.33;;;;;;;6.26;100.00;100255.91;5027354;28;20049;-75
2021/11/03 09:58:57;;;;;;;57.15;33.75;;;;;;;6.57;100.00;100261.34;5027579;28;20057;-74
2021/11/03 10:01:37;;;;;;;57.58;31.55;;;;;;;6.73;100.00;100256.53;5027593;28;20045;-74
2021/11/03 10:04:21;;;;;;;60.15;33.50;;;;;;;6.85;100.00;100255.34;5027848;28;20148;-74
2021/11/03 10:06:56;;;;;;;67.28;34.72;;;;;;;6.71;100.00;100256.56;5027621;28;20140;-74
2021/11/03 10:09:24;;;;;;;56.35;31.15;;;;;;;6.70;100.00;100246.00;5027451;28;20057;-75
2021/11/03 10:11:54;;;;;;;49.55;29.58;;;;;;;6.69;100.00;100260.16;5027085;28;20041;-74
2021/11/03 10:14:22;;;;;;;51.10;30.20;;;;;;;6.84;100.00;100250.94;5027363;28;20434;-74
2021/11/03 10:16:53;;;;;;;49.60;30.63;;;;;;;6.98;100.00;100254.13;5027945;28;20093;-75
2021/11/03 10:19:31;;;;;;;52.95;28.30;;;;;;;6.98;100.00;100259.44;5028029;28;20265;-75
2021/11/03 10:22:06;;;;;;;47.35;26.80;;;;;;;6.99;100.00;100253.19;5026738;28;20092;-75
2021/11/03 10:24:39;;;;;;;44.42;26.08;;;;;;;7.16;100.00;100260.69;5027250;28;20085;-74
2021/11/03 10:27:46;;;;;;;45.65;28.45;;;;;;;7.27;100.00;100255.09;5030285;28;20050;-74
2021/11/03 10:30:32;;;;;;;42.90;26.50;;;;;;;7.38;100.00;100262.78;5031016;28;20103;-68
2021/11/03 10:33:18;;;;;;;39.30;26.50;;;;;;;7.46;100.00;100261.66;5031592;28;20125;-69
2021/11/03 10:35:56;;;;;;;44.03;26.35;;;;;;;7.52;100.00;100259.72;5034992;28;20064;-68
2021/11/03 10:38:27;;;;;;;44.42;26.80;;;;;;;7.61;100.00;100257.69;5035380;28;20053;-68
2021/11/03 10:41:02;;;;;;;46.30;26.13;;;;;;;7.80;100.00;100260.66;5035562;28;20467;-69
2021/11/03 10:43:41;;;;;;;41.83;26.77;;;;;;;7.95;100.00;100253.13;5035048;28;20074;-69
2021/11/03 10:46:18;;;;;;;42.75;26.15;;;;;;;8.20;100.00;100253.25;5035683;28;20057;-74
2021/11/03 10:48:55;;;;;;;43.83;26.30;;;;;;;8.46;100.00;100247.13;5034924;28;20065;-73
2021/11/03 10:51:34;;;;;;;42.95;26.98;;;;;;;8.72;100.00;100242.75;5034900;28;20064;-74
2021/11/03 10:54:10;;;;;;;44.95;26.52;;;;;;;8.53;100.00;100243.34;5034978;28;20403;-74
2021/11/03 10:56:51;;;;;;;39.00;24.92;;;;;;;8.52;100.00;100233.63;5034814;28;20050;-74
2021/11/03 10:59:28;;;;;;;38.13;24.13;;;;;;;8.76;100.00;100237.25;5034937;28;20556;-74
2021/11/03 11:02:00;;;;;;;41.65;24.65;;;;;;;8.92;100.00;100242.03;5035066;28;20111;-74
2021/11/03 11:04:31;;;;;;;31.58;20.13;;;;;;;8.76;100.00;100239.06;5034949;28;20053;-74
2021/11/03 11:07:05;;;;;;;34.63;20.63;;;;;;;8.97;100.00;100237.44;5035124;28;20420;-74
2021/11/03 11:09:37;;;;;;;;;;;;;;;9.08;100.00;100234.41;5035412;28;20519;-74
2021/11/03 11:12:20;;;;;;;32.92;20.55;;;;;;;9.27;100.00;100227.50;5034833;28;19921;-73
2021/11/03 11:14:52;;;;;;;31.85;21.52;;;;;;;9.62;100.00;100237.75;5035198;28;20463;-73
2021/11/03 11:17:27;;;;;;;33.33;21.10;;;;;;;9.80;100.00;100230.88;5035177;28;20057;-72
2021/11/03 11:20:10;;;;;;;32.90;19.63;;;;;;;10.05;100.00;100230.78;5034961;28;20049;-73
2021/11/03 11:22:50;;;;;;;32.95;20.58;;;;;;;10.34;100.00;100229.66;5034552;28;20128;-71
2021/11/03 11:25:22;;;;;;;25.67;16.95;;;;;;;10.45;100.00;100232.75;5034644;28;20053;-71
2021/11/03 11:28:04;;;;;;;23.65;13.85;;;;;;;10.57;100.00;100233.16;5034945;28;20084;-71